METAR
METAR

METAR

METAR EPSY 012330Z 09007KT 050V120 9999 SCT021 14/11 Q1007=
TAF EPSY 012330Z 0200/0209 09008KT 9999 BKN020 TEMPO 0203/0206 BKN014 PROB30 TEMPO 0206/0209 -RA=
Ostrzeżenia
Ostrzeżenia

Ostrzeżenia

BRAK